This is the latest recevied weather packets stored in our database for station/object WB6ANP. If no packets are shown the sender has not sent any weather packets the latest 10 day(s).
| Time | Temp. | Humidity | Pressure | Rain* | Wind** | Luminosity | Snow |
|---|---|---|---|---|---|---|---|
| 1777133768 | 25.56° C | 77% | 1007.6 hPa | 0 mm | - | 235 W/m² | - |
| 1777133463 | 25.56° C | 79% | 1007.6 hPa | 0 mm | - | 900 W/m² | - |
| 1777133163 | 25° C | 79% | 1007.5 hPa | 0 mm | - | 379 W/m² | - |
| 1777132858 | 25° C | 80% | 1007.4 hPa | 0 mm | - | 335 W/m² | - |
| 1777132554 | 25.56° C | 80% | 1007.4 hPa | 0 mm | - | 317 W/m² | - |
| 1777132251 | 25° C | 79% | 1007.6 hPa | 0 mm | - | 409 W/m² | - |
| 1777131947 | 25° C | 82% | 1007.4 hPa | 0 mm | - | 813 W/m² | - |
| 1777131646 | 25° C | 80% | 1007.7 hPa | 0 mm | - | 220 W/m² | - |
| 1777131345 | 25° C | 82% | 1007.5 hPa | 0 mm | - | 663 W/m² | - |
| 1777131045 | 24.44° C | 83% | 1007.6 hPa | 0 mm | - | 299 W/m² | - |
| 1777130741 | 25° C | 82% | 1007.3 hPa | 0 mm | - | 186 W/m² | - |
| 1777130438 | 25° C | 82% | 1007.4 hPa | 0 mm | - | 495 W/m² | - |
| 1777130134 | 25.56° C | 81% | 1007.4 hPa | 0 mm | - | 257 W/m² | - |
| 1777129830 | 24.44° C | 85% | 1007.4 hPa | 0 mm | - | 566 W/m² | - |
| 1777129525 | 23.89° C | 86% | 1007.5 hPa | 0 mm | - | 643 W/m² | - |
| 1777129224 | 23.89° C | 85% | 1007.6 hPa | 0 mm | - | 285 W/m² | - |
| 1777128920 | 23.89° C | 88% | 1007.6 hPa | 0 mm | - | 273 W/m² | - |
| 1777128617 | 22.78° C | 90% | 1007.4 hPa | 0 mm | - | 650 W/m² | - |
| 1777128315 | 22.78° C | 90% | 1007.5 hPa | 0 mm | - | 192 W/m² | - |
| 1777128011 | 22.78° C | 91% | 1007.6 hPa | 0 mm | - | 113 W/m² | - |
| 1777127709 | 22.78° C | 92% | 1007.6 hPa | 0 mm | - | 194 W/m² | - |
| 1777127406 | 22.78° C | 92% | 1007.5 hPa | 0 mm | - | 196 W/m² | - |
| 1777127101 | 22.22° C | 93% | 1007.6 hPa | 0 mm | - | 172 W/m² | - |
| 1777126797 | 22.22° C | 93% | 1007.5 hPa | 0 mm | - | 123 W/m² | - |
| 1777126494 | 22.22° C | 94% | 1007.4 hPa | 0 mm | - | 72 W/m² | - |
* Rain latest hour (hover to see other rain measurements)
** Current wind speed in m/s (hover to see current wind gust speed)